createdAt,value
2019-06-20T00:00:13.421Z,34.30
2019-06-20T00:01:12.773Z,36.20
2019-06-20T00:02:12.749Z,38.00
2019-06-20T00:03:12.737Z,31.80
2019-06-20T00:04:12.729Z,39.90
2019-06-20T00:05:12.718Z,36.10
2019-06-20T00:06:12.719Z,35.10
2019-06-20T00:07:12.688Z,36.10
2019-06-20T00:08:12.679Z,35.10
2019-06-20T00:09:12.697Z,38.10
2019-06-20T00:10:12.671Z,33.90
2019-06-20T00:11:12.670Z,38.10
2019-06-20T00:12:12.637Z,42.40
2019-06-20T00:13:12.630Z,36.90
2019-06-20T00:14:12.661Z,37.40
2019-06-20T00:15:12.629Z,39.30
2019-06-20T00:16:12.606Z,36.50
2019-06-20T00:17:12.586Z,36.10
2019-06-20T00:18:12.601Z,34.80
2019-06-20T00:19:12.564Z,35.30
2019-06-20T00:20:12.564Z,37.70
2019-06-20T00:21:12.544Z,36.00
2019-06-20T00:22:12.534Z,36.10
2019-06-20T00:23:12.523Z,35.00
2019-06-20T00:24:12.517Z,37.80
2019-06-20T00:25:12.522Z,38.00
2019-06-20T00:26:12.492Z,40.50
2019-06-20T00:27:12.571Z,36.90
2019-06-20T00:28:12.462Z,38.70
2019-06-20T00:29:12.478Z,36.00
2019-06-20T00:30:12.451Z,40.50
2019-06-20T00:31:12.440Z,41.10
2019-06-20T00:32:12.431Z,43.20
2019-06-20T00:33:12.443Z,39.30
2019-06-20T00:34:12.425Z,41.70
2019-06-20T00:35:12.400Z,43.50
2019-06-20T00:36:12.398Z,45.40
2019-06-20T00:37:12.369Z,43.00
2019-06-20T00:38:12.378Z,40.10
2019-06-20T00:39:12.348Z,45.50
2019-06-20T00:40:12.337Z,43.50
2019-06-20T00:41:12.327Z,45.80
2019-06-20T00:42:12.327Z,46.60
2019-06-20T00:43:17.525Z,48.80
2019-06-20T00:44:13.321Z,48.20
2019-06-20T00:45:12.290Z,46.20
2019-06-20T00:46:12.305Z,46.60
2019-06-20T00:47:12.267Z,45.90
2019-06-20T00:48:12.256Z,51.40
2019-06-20T00:49:12.244Z,43.40
2019-06-20T00:50:12.304Z,45.70
2019-06-20T00:51:12.265Z,46.40
2019-06-20T00:52:12.233Z,49.70
2019-06-20T00:53:12.211Z,43.30
2019-06-20T00:54:12.214Z,46.40
2019-06-20T00:55:12.216Z,46.30
2019-06-20T00:56:12.177Z,51.50
2019-06-20T00:57:12.162Z,44.90
2019-06-20T00:58:12.152Z,47.20
2019-06-20T00:59:12.160Z,52.30
2019-06-20T01:00:12.131Z,47.70
2019-06-20T01:01:12.130Z,43.60
2019-06-20T01:02:12.110Z,45.20
2019-06-20T01:03:12.092Z,51.10
2019-06-20T01:04:12.101Z,48.70
2019-06-20T01:05:12.083Z,50.90
2019-06-20T01:06:12.059Z,47.50
2019-06-20T01:07:12.049Z,47.30
2019-06-20T01:08:12.047Z,49.80
2019-06-20T01:09:12.052Z,45.60
2019-06-20T01:10:12.040Z,46.20
2019-06-20T01:11:12.007Z,42.70
2019-06-20T01:12:11.997Z,43.40
2019-06-20T01:13:11.996Z,47.70
2019-06-20T01:14:11.997Z,54.50
2019-06-20T01:15:11.975Z,53.70
2019-06-20T01:16:11.966Z,53.50
2019-06-20T01:17:11.979Z,51.10
2019-06-20T01:18:11.944Z,41.00
2019-06-20T01:19:11.924Z,50.20
2019-06-20T01:20:11.914Z,49.30
2019-06-20T01:21:11.914Z,51.10
2019-06-20T01:22:11.921Z,43.90
2019-06-20T01:23:11.883Z,47.10
2019-06-20T01:24:11.873Z,50.90
2019-06-20T01:25:11.869Z,46.00
2019-06-20T01:26:11.852Z,43.00
2019-06-20T01:27:11.862Z,45.60
2019-06-20T01:28:11.831Z,44.40
2019-06-20T01:29:11.841Z,43.10
2019-06-20T01:30:11.811Z,48.30
2019-06-20T01:31:11.801Z,44.00
2019-06-20T01:32:11.790Z,45.00
2019-06-20T01:33:11.801Z,40.50
2019-06-20T01:34:11.770Z,44.40
2019-06-20T01:35:11.759Z,44.70
2019-06-20T01:36:11.766Z,45.40
2019-06-20T01:37:11.739Z,42.60
2019-06-20T01:38:11.741Z,41.70
2019-06-20T01:39:11.727Z,41.60
2019-06-20T01:40:11.729Z,41.00
2019-06-20T01:41:11.697Z,40.10
2019-06-20T01:42:11.686Z,38.80
2019-06-20T01:43:11.687Z,40.50
2019-06-20T01:44:11.666Z,41.10
2019-06-20T01:45:11.667Z,42.10
2019-06-20T01:46:11.645Z,37.80
2019-06-20T01:47:11.633Z,41.20
2019-06-20T01:48:11.623Z,42.50
2019-06-20T01:49:11.605Z,46.40
2019-06-20T01:50:11.606Z,43.00
2019-06-20T01:51:11.593Z,43.90
2019-06-20T01:52:11.585Z,48.10
2019-06-20T01:53:11.572Z,39.50
2019-06-20T01:54:11.563Z,40.30
2019-06-20T01:55:11.542Z,39.90
2019-06-20T01:56:11.535Z,45.00
2019-06-20T01:57:11.534Z,43.00
2019-06-20T01:58:11.514Z,45.60
2019-06-20T01:59:11.522Z,46.20
2019-06-20T02:00:11.503Z,45.40
2019-06-20T02:01:11.480Z,46.50
2019-06-20T02:02:11.470Z,47.10
2019-06-20T02:03:11.477Z,45.30
2019-06-20T02:04:11.476Z,47.60
2019-06-20T02:05:11.440Z,45.10
2019-06-20T02:06:11.438Z,48.20
2019-06-20T02:07:11.408Z,49.50
2019-06-20T02:08:11.561Z,48.70
2019-06-20T02:09:11.409Z,49.30
2019-06-20T02:10:11.388Z,44.80
2019-06-20T02:11:11.412Z,50.20
2019-06-20T02:12:11.412Z,50.90
2019-06-20T02:13:11.370Z,55.00
2019-06-20T02:14:11.372Z,52.30
2019-06-20T02:15:11.356Z,55.10
2019-06-20T02:16:11.361Z,47.70
2019-06-20T02:17:11.330Z,54.40
2019-06-20T02:18:11.317Z,54.10
2019-06-20T02:19:11.298Z,52.40
2019-06-20T02:20:11.283Z,52.90
2019-06-20T02:21:11.276Z,50.90
2019-06-20T02:22:11.266Z,56.20
2019-06-20T02:23:11.604Z,51.60
2019-06-20T02:24:11.234Z,54.20
2019-06-20T02:25:11.237Z,56.40
2019-06-20T02:26:11.290Z,52.40
2019-06-20T02:27:11.205Z,54.00
2019-06-20T02:28:11.191Z,57.60
2019-06-20T02:29:11.202Z,54.60
2019-06-20T02:30:11.221Z,54.60
2019-06-20T02:31:11.172Z,58.90
2019-06-20T02:32:11.151Z,63.20
2019-06-20T02:33:11.141Z,58.10
2019-06-20T02:34:11.135Z,52.30
2019-06-20T02:35:11.642Z,56.90
2019-06-20T02:36:11.122Z,61.30
2019-06-20T02:37:11.146Z,53.00
2019-06-20T02:38:11.090Z,54.70
2019-06-20T02:39:11.078Z,52.90
2019-06-20T02:40:11.073Z,49.10
2019-06-20T02:41:11.081Z,60.30
2019-06-20T02:42:11.046Z,57.30
2019-06-20T02:43:11.045Z,58.20
2019-06-20T02:44:28.566Z,50.70
2019-06-20T02:45:12.006Z,58.30
2019-06-20T02:46:11.032Z,57.60
2019-06-20T02:47:11.027Z,61.50
2019-06-20T02:48:10.976Z,58.90
2019-06-20T02:49:10.967Z,57.50
2019-06-20T02:50:10.955Z,54.10
2019-06-20T02:51:10.953Z,57.20
2019-06-20T02:52:10.946Z,56.10
2019-06-20T02:53:10.931Z,55.10
2019-06-20T02:54:10.935Z,52.30
2019-06-20T02:55:10.909Z,51.70
2019-06-20T02:56:10.893Z,54.50
2019-06-20T02:57:10.880Z,55.10
2019-06-20T02:58:10.903Z,54.10
2019-06-20T02:59:10.863Z,61.20
2019-06-20T03:00:10.850Z,53.70
2019-06-20T03:01:10.840Z,54.60
2019-06-20T03:02:10.833Z,58.10
2019-06-20T03:03:10.859Z,56.70
2019-06-20T03:04:10.808Z,57.20
2019-06-20T03:05:10.806Z,54.40
2019-06-20T03:06:10.789Z,58.30
2019-06-20T03:07:10.784Z,57.10
2019-06-20T03:08:10.778Z,60.70
2019-06-20T03:09:10.758Z,58.90
2019-06-20T03:10:10.749Z,58.70
2019-06-20T03:11:10.728Z,57.20
2019-06-20T03:12:10.723Z,57.30
2019-06-20T03:13:10.705Z,56.80
2019-06-20T03:14:10.715Z,58.60
2019-06-20T03:15:10.688Z,58.10
2019-06-20T03:16:10.675Z,52.40
2019-06-20T03:17:10.687Z,55.10
2019-06-20T03:18:10.654Z,55.00
2019-06-20T03:19:10.664Z,49.00
2019-06-20T03:20:10.730Z,53.90
2019-06-20T03:21:10.636Z,53.30
2019-06-20T03:22:10.617Z,51.70
2019-06-20T03:23:10.604Z,51.70
2019-06-20T03:24:10.593Z,49.80
2019-06-20T03:25:10.592Z,50.60
2019-06-20T03:26:10.580Z,52.30
2019-06-20T03:27:10.564Z,54.00
2019-06-20T03:28:10.563Z,54.40
2019-06-20T03:29:10.556Z,54.60
2019-06-20T03:30:10.553Z,52.60
2019-06-20T03:31:10.523Z,56.80
2019-06-20T03:32:10.512Z,58.20
2019-06-20T03:33:10.510Z,57.60
2019-06-20T03:34:10.514Z,57.00
2019-06-20T03:35:10.471Z,61.10
2019-06-20T03:36:10.459Z,64.10
2019-06-20T03:37:10.451Z,59.00
2019-06-20T03:38:10.442Z,61.30
2019-06-20T03:39:10.455Z,64.90
2019-06-20T03:40:10.418Z,58.20
2019-06-20T03:41:10.406Z,60.10
2019-06-20T03:42:10.400Z,61.70
2019-06-20T03:43:10.387Z,65.30
2019-06-20T03:44:10.386Z,70.10
2019-06-20T03:45:10.374Z,66.20
2019-06-20T03:46:10.361Z,65.30
2019-06-20T03:47:10.345Z,66.70
2019-06-20T03:48:10.334Z,69.80
2019-06-20T03:49:10.325Z,72.80
2019-06-20T03:50:10.324Z,69.60
2019-06-20T03:51:10.305Z,70.10
2019-06-20T03:52:10.296Z,71.80
2019-06-20T03:53:10.273Z,73.10
2019-06-20T03:54:10.273Z,76.30
2019-06-20T03:55:10.252Z,71.90
2019-06-20T03:56:10.259Z,73.60
2019-06-20T03:57:10.243Z,73.10
2019-06-20T03:58:10.228Z,72.60
2019-06-20T03:59:10.221Z,73.50
2019-06-20T04:00:10.210Z,72.70
2019-06-20T04:01:10.232Z,73.80
2019-06-20T04:02:10.183Z,78.00
2019-06-20T04:03:10.176Z,68.10
2019-06-20T04:04:10.148Z,70.40
2019-06-20T04:05:10.147Z,68.50
2019-06-20T04:06:10.145Z,76.20
2019-06-20T04:07:10.140Z,71.60
2019-06-20T04:08:10.969Z,71.40
2019-06-20T04:09:10.097Z,72.50
2019-06-20T04:10:10.110Z,76.10
2019-06-20T04:11:10.124Z,71.30
2019-06-20T04:12:10.102Z,71.00
2019-06-20T04:13:10.085Z,78.10
2019-06-20T04:14:10.090Z,68.30
2019-06-20T04:15:19.057Z,69.60
2019-06-20T04:16:11.043Z,71.00
2019-06-20T04:17:10.022Z,67.10
2019-06-20T04:18:10.036Z,72.30
2019-06-20T04:19:10.002Z,62.30
2019-06-20T04:20:09.993Z,76.20
2019-06-20T04:21:09.991Z,68.60
2019-06-20T04:22:09.963Z,69.90
2019-06-20T04:23:09.951Z,65.70
2019-06-20T04:24:09.946Z,68.00
2019-06-20T04:25:09.941Z,69.90
2019-06-20T04:26:09.921Z,71.50
2019-06-20T04:27:09.911Z,71.10
2019-06-20T04:28:09.902Z,75.30
2019-06-20T04:29:09.890Z,73.40
2019-06-20T04:30:09.893Z,77.10
2019-06-20T04:31:09.861Z,77.30
2019-06-20T04:32:09.861Z,75.10
2019-06-20T04:33:09.852Z,75.30
2019-06-20T04:34:10.789Z,83.10
2019-06-20T04:35:09.818Z,78.20
2019-06-20T04:36:09.818Z,81.90
2019-06-20T04:37:09.817Z,83.70
2019-06-20T04:38:09.787Z,86.90
2019-06-20T04:39:18.636Z,89.30
2019-06-20T04:40:10.782Z,89.40
2019-06-20T04:41:09.762Z,87.10
2019-06-20T04:42:09.752Z,99.00
2019-06-20T04:43:09.725Z,98.50
2019-06-20T04:44:09.728Z,100.50
2019-06-20T04:45:09.744Z,99.90
2019-06-20T04:46:09.703Z,94.00
2019-06-20T04:47:09.687Z,96.20
2019-06-20T04:48:09.676Z,100.30
2019-06-20T04:49:09.676Z,101.00
2019-06-20T04:50:09.684Z,92.40
2019-06-20T04:51:09.643Z,98.20
2019-06-20T04:52:09.634Z,103.90
2019-06-20T04:53:09.641Z,93.70
2019-06-20T04:54:09.614Z,101.70
2019-06-20T04:55:09.612Z,97.80
2019-06-20T04:56:09.602Z,99.80
2019-06-20T04:57:09.592Z,94.90
2019-06-20T04:58:09.571Z,89.50
2019-06-20T04:59:09.568Z,93.70
2019-06-20T05:00:09.619Z,100.70
2019-06-20T05:01:09.540Z,101.70
2019-06-20T05:02:09.529Z,87.30
2019-06-20T05:03:09.529Z,94.00
2019-06-20T05:04:09.546Z,97.70
2019-06-20T05:05:09.498Z,94.50
2019-06-20T05:06:09.488Z,93.90
2019-06-20T05:07:09.467Z,90.60
2019-06-20T05:08:09.489Z,90.40
2019-06-20T05:09:09.462Z,92.90
2019-06-20T05:10:09.436Z,85.70
2019-06-20T05:11:09.428Z,84.60
2019-06-20T05:12:09.431Z,85.20
2019-06-20T05:13:09.426Z,80.30
2019-06-20T05:14:09.407Z,81.90
2019-06-20T05:15:09.384Z,86.30
2019-06-20T05:16:09.382Z,80.20
2019-06-20T05:17:09.373Z,80.40
2019-06-20T05:18:09.416Z,80.00
2019-06-20T05:19:09.364Z,81.80
2019-06-20T05:20:09.333Z,78.90
2019-06-20T05:21:09.331Z,76.70
2019-06-20T05:22:09.312Z,80.10
2019-06-20T05:23:09.305Z,73.50
2019-06-20T05:24:09.303Z,69.90
2019-06-20T05:25:09.281Z,71.30
2019-06-20T05:26:09.278Z,73.60
2019-06-20T05:27:09.262Z,74.10
2019-06-20T05:28:09.250Z,67.80
2019-06-20T05:29:09.256Z,72.70
2019-06-20T05:30:09.220Z,71.10
2019-06-20T05:31:09.219Z,73.20
2019-06-20T05:32:09.263Z,75.70
2019-06-20T05:33:09.199Z,68.60
2019-06-20T05:34:09.179Z,68.80
2019-06-20T05:35:09.169Z,69.20
2019-06-20T05:36:09.158Z,77.00
2019-06-20T05:37:09.168Z,67.90
2019-06-20T05:38:09.146Z,64.10
2019-06-20T05:39:09.126Z,62.60
2019-06-20T05:40:09.125Z,65.60
2019-06-20T05:41:09.110Z,61.30
2019-06-20T05:42:09.114Z,60.50
2019-06-20T05:44:18.015Z,60.00
2019-06-20T05:45:18.039Z,64.70
2019-06-20T05:46:17.983Z,57.90
2019-06-20T05:47:18.018Z,66.20
2019-06-20T05:48:17.999Z,65.10
2019-06-20T05:49:19.036Z,57.30
2019-06-20T05:50:17.959Z,50.40
2019-06-20T05:51:17.933Z,52.10
2019-06-20T05:52:17.922Z,54.20
2019-06-20T05:53:17.913Z,55.10
2019-06-20T05:54:17.902Z,53.90
2019-06-20T05:55:17.891Z,56.50
2019-06-20T05:56:17.890Z,56.80
2019-06-20T05:57:17.870Z,56.60
2019-06-20T05:58:17.862Z,55.70
2019-06-20T05:59:17.851Z,58.20
2019-06-20T06:00:18.545Z,53.70
2019-06-20T06:01:17.839Z,49.70
2019-06-20T06:02:17.817Z,52.80
2019-06-20T06:03:17.830Z,53.90
2019-06-20T06:04:17.799Z,50.60
2019-06-20T06:05:17.809Z,46.60
2019-06-20T06:06:17.780Z,46.80
2019-06-20T06:07:17.769Z,44.60
2019-06-20T06:08:17.757Z,43.00
2019-06-20T06:09:17.777Z,40.50
2019-06-20T06:10:17.772Z,40.30
2019-06-20T06:11:17.736Z,45.20
2019-06-20T06:12:17.706Z,32.00
2019-06-20T06:13:17.705Z,35.90
2019-06-20T06:14:17.685Z,32.70
2019-06-20T06:15:17.684Z,32.40
2019-06-20T06:16:26.137Z,31.50
2019-06-20T06:17:18.655Z,34.40
2019-06-20T06:18:17.642Z,34.30
2019-06-20T06:19:17.634Z,33.70
2019-06-20T06:20:17.633Z,32.50
2019-06-20T06:21:17.639Z,30.30
2019-06-20T06:22:17.612Z,30.40
2019-06-20T06:23:17.611Z,30.80
2019-06-20T06:24:17.593Z,32.60
2019-06-20T06:25:17.578Z,33.90
2019-06-20T06:26:17.621Z,32.40
2019-06-20T06:27:17.571Z,31.80
2019-06-20T06:28:17.540Z,29.90
2019-06-20T06:29:17.529Z,31.00
2019-06-20T06:30:17.513Z,28.90
2019-06-20T06:31:17.534Z,25.60
2019-06-20T06:32:20.057Z,26.10
2019-06-20T06:33:17.481Z,27.80
2019-06-20T06:34:17.503Z,28.40
2019-06-20T06:35:17.459Z,26.60
2019-06-20T06:36:17.449Z,26.50
2019-06-20T06:37:17.460Z,24.50
2019-06-20T06:38:22.210Z,27.30
2019-06-20T06:39:17.418Z,27.20
2019-06-20T06:40:17.407Z,25.00
2019-06-20T06:41:17.397Z,26.40
2019-06-20T06:42:17.386Z,26.90
2019-06-20T06:43:17.396Z,27.50
2019-06-20T06:44:17.365Z,25.70
2019-06-20T06:45:17.363Z,25.30
2019-06-20T06:46:17.414Z,25.20
2019-06-20T06:47:17.379Z,21.50
2019-06-20T06:48:17.334Z,22.00
2019-06-20T06:49:17.325Z,21.40
2019-06-20T06:50:17.297Z,20.80
2019-06-20T06:51:17.310Z,21.00
2019-06-20T06:52:17.273Z,22.80
2019-06-20T06:53:17.282Z,19.20
2019-06-20T06:54:17.272Z,18.60
2019-06-20T06:55:17.273Z,19.20
2019-06-20T06:56:17.251Z,19.50
2019-06-20T06:57:17.222Z,18.80
2019-06-20T06:58:17.212Z,22.40
2019-06-20T06:59:17.211Z,20.60
2019-06-20T07:00:17.199Z,20.00
2019-06-20T07:01:17.220Z,20.50
2019-06-20T07:02:17.171Z,21.30
2019-06-20T07:03:17.160Z,23.30
2019-06-20T07:04:17.159Z,21.00
2019-06-20T07:05:17.178Z,23.70
2019-06-20T07:06:17.159Z,21.50
2019-06-20T07:07:17.137Z,20.90
2019-06-20T07:08:17.098Z,23.10
2019-06-20T07:09:17.112Z,22.70
2019-06-20T07:10:17.134Z,22.90
2019-06-20T07:11:17.076Z,23.00
2019-06-20T07:12:17.066Z,20.10
2019-06-20T07:13:17.056Z,21.70
2019-06-20T07:14:17.046Z,24.40
2019-06-20T07:15:17.066Z,26.80
2019-06-20T07:16:17.026Z,25.50
2019-06-20T07:17:17.016Z,26.70
2019-06-20T07:18:17.007Z,26.30
2019-06-20T07:19:16.984Z,26.70
2019-06-20T07:20:16.992Z,28.90
2019-06-20T07:21:16.970Z,29.10
2019-06-20T07:22:16.981Z,26.40
2019-06-20T07:23:17.036Z,25.30
2019-06-20T07:24:17.802Z,24.70
2019-06-20T07:25:16.933Z,27.20
2019-06-20T07:26:16.923Z,26.00
2019-06-20T07:27:16.964Z,25.00
2019-06-20T07:28:16.885Z,30.90
2019-06-20T07:29:16.936Z,27.80
2019-06-20T07:30:16.883Z,29.20
2019-06-20T07:31:16.859Z,30.40
2019-06-20T07:32:16.946Z,29.80
2019-06-20T07:33:16.830Z,29.90
2019-06-20T07:34:16.856Z,32.40
2019-06-20T07:35:16.822Z,35.40
2019-06-20T07:36:16.800Z,33.80
2019-06-20T07:37:16.792Z,40.90
2019-06-20T07:38:16.788Z,38.90
2019-06-20T07:39:16.798Z,39.80
2019-06-20T07:40:16.758Z,40.60
2019-06-20T07:41:16.747Z,39.70
2019-06-20T07:42:16.737Z,44.90
2019-06-20T07:43:16.756Z,42.30
2019-06-20T07:44:16.727Z,43.90
2019-06-20T07:45:16.711Z,45.30
2019-06-20T07:46:16.742Z,44.90
2019-06-20T07:47:18.107Z,42.50
2019-06-20T07:48:16.685Z,45.00
2019-06-20T07:49:16.680Z,39.20
2019-06-20T07:50:16.678Z,38.40
2019-06-20T07:51:16.665Z,39.90
2019-06-20T07:52:16.634Z,39.60
2019-06-20T07:53:16.648Z,37.00
2019-06-20T07:54:16.624Z,38.50
2019-06-20T07:55:16.607Z,35.60
2019-06-20T07:56:16.614Z,39.20
2019-06-20T07:57:16.574Z,32.50
2019-06-20T07:58:16.572Z,28.90
2019-06-20T07:59:16.582Z,32.00
2019-06-20T08:00:16.561Z,29.30
2019-06-20T08:01:16.559Z,33.20
2019-06-20T08:02:16.555Z,27.80
2019-06-20T08:03:16.525Z,29.40
2019-06-20T08:04:16.515Z,29.90
2019-06-20T08:05:16.499Z,31.90
2019-06-20T08:06:16.480Z,29.70
2019-06-20T08:07:16.484Z,30.10
2019-06-20T08:08:16.460Z,30.30
2019-06-20T08:09:16.541Z,30.50
2019-06-20T08:10:16.448Z,32.60
2019-06-20T08:11:16.490Z,31.10
2019-06-20T08:12:16.428Z,32.80
2019-06-20T08:13:16.407Z,31.50
2019-06-20T08:14:16.400Z,29.30
2019-06-20T08:15:17.140Z,29.50
2019-06-20T08:16:16.406Z,27.80
2019-06-20T08:17:16.370Z,27.40
2019-06-20T08:18:16.356Z,25.90
2019-06-20T08:19:16.383Z,24.50
2019-06-20T08:20:16.336Z,20.70
2019-06-20T08:21:16.325Z,22.30
2019-06-20T08:22:16.305Z,18.80
2019-06-20T08:23:16.309Z,22.00
2019-06-20T08:24:16.285Z,18.40
2019-06-20T08:25:16.279Z,18.80
2019-06-20T08:26:16.295Z,17.60
2019-06-20T08:27:16.252Z,19.20
2019-06-20T08:28:16.258Z,16.50
2019-06-20T08:29:21.152Z,18.20
2019-06-20T08:30:17.222Z,16.70
2019-06-20T08:31:16.214Z,18.90
2019-06-20T08:32:16.214Z,22.20
2019-06-20T08:33:16.214Z,19.50
2019-06-20T08:34:16.183Z,18.10
2019-06-20T08:35:16.220Z,20.10
2019-06-20T08:36:16.161Z,15.90
2019-06-20T08:37:16.171Z,19.00
2019-06-20T08:38:16.139Z,18.60
2019-06-20T08:39:16.120Z,16.30
2019-06-20T08:40:16.110Z,19.10
2019-06-20T08:41:16.135Z,18.30
2019-06-20T08:42:16.100Z,17.80
2019-06-20T08:43:16.088Z,21.90
2019-06-20T08:44:16.069Z,18.30
2019-06-20T08:45:16.094Z,20.30
2019-06-20T08:46:16.058Z,21.60
2019-06-20T08:47:16.059Z,20.20
2019-06-20T08:48:16.029Z,22.60
2019-06-20T08:49:16.947Z,20.10
2019-06-20T08:50:16.016Z,22.50
2019-06-20T08:51:16.011Z,21.60
2019-06-20T08:52:15.986Z,22.90
2019-06-20T08:53:15.976Z,24.70
2019-06-20T08:54:15.986Z,22.30
2019-06-20T08:55:15.978Z,23.00
2019-06-20T08:56:15.949Z,23.80
2019-06-20T08:57:15.954Z,24.50
2019-06-20T08:58:15.945Z,24.50
2019-06-20T08:59:24.382Z,25.70
2019-06-20T09:00:16.905Z,27.30
2019-06-20T09:01:15.894Z,30.80
2019-06-20T09:02:15.874Z,27.60
2019-06-20T09:03:15.883Z,30.20
2019-06-20T09:04:15.865Z,28.30
2019-06-20T09:05:15.853Z,31.30
2019-06-20T09:06:15.842Z,31.00
2019-06-20T09:07:15.834Z,26.30
2019-06-20T09:08:15.839Z,31.80
2019-06-20T09:09:15.807Z,29.20
2019-06-20T09:10:15.846Z,27.50
2019-06-20T09:11:15.793Z,26.50
2019-06-20T09:12:15.770Z,26.20
2019-06-20T09:13:15.779Z,27.90
2019-06-20T09:14:16.361Z,25.70
2019-06-20T09:15:15.781Z,28.00
2019-06-20T09:16:24.380Z,25.20
2019-06-20T09:17:16.718Z,24.90
2019-06-20T09:18:15.707Z,26.00
2019-06-20T09:19:15.749Z,25.90
2019-06-20T09:20:15.706Z,24.50
2019-06-20T09:21:15.689Z,24.90
2019-06-20T09:22:15.667Z,26.90
2019-06-20T09:23:15.688Z,24.70
2019-06-20T09:24:15.664Z,25.80
2019-06-20T09:25:15.666Z,26.50
2019-06-20T09:26:15.664Z,28.00
2019-06-20T09:27:15.614Z,24.10
2019-06-20T09:28:15.663Z,26.30
2019-06-20T09:29:15.594Z,27.00
2019-06-20T09:30:15.596Z,24.10
2019-06-20T09:31:15.590Z,23.80
2019-06-20T09:32:15.571Z,26.10
2019-06-20T09:33:15.568Z,25.70
2019-06-20T09:34:15.548Z,27.50
2019-06-20T09:35:15.543Z,26.20
2019-06-20T09:36:15.513Z,26.40
2019-06-20T09:37:15.542Z,26.00
2019-06-20T09:38:15.502Z,27.30
2019-06-20T09:39:15.505Z,29.70
2019-06-20T09:40:15.483Z,27.30
2019-06-20T09:41:15.461Z,29.30
2019-06-20T09:42:15.460Z,32.30
2019-06-20T09:43:27.260Z,28.80
2019-06-20T09:44:16.432Z,27.70
2019-06-20T09:45:15.420Z,27.60
2019-06-20T09:46:15.410Z,28.70
2019-06-20T09:47:15.400Z,29.00
2019-06-20T09:48:15.420Z,26.40
2019-06-20T09:49:15.379Z,24.20
2019-06-20T09:50:15.376Z,23.30
2019-06-20T09:51:15.359Z,27.30
2019-06-20T09:52:15.450Z,24.50
2019-06-20T09:53:15.339Z,22.50
2019-06-20T09:54:15.330Z,23.30
2019-06-20T09:55:15.319Z,23.70
2019-06-20T09:56:15.368Z,22.40
2019-06-20T09:57:15.318Z,22.40
2019-06-20T09:58:15.295Z,22.10
2019-06-20T09:59:27.252Z,24.50
2019-06-20T10:00:16.278Z,24.30
2019-06-20T10:01:15.257Z,22.30
2019-06-20T10:02:15.259Z,24.80
2019-06-20T10:03:15.247Z,23.90
2019-06-20T10:04:15.236Z,22.70
2019-06-20T10:05:15.205Z,22.90
2019-06-20T10:06:15.259Z,25.10
2019-06-20T10:07:15.271Z,21.10
2019-06-20T10:08:15.237Z,21.70
2019-06-20T10:09:15.164Z,19.80
2019-06-20T10:10:15.154Z,21.90
2019-06-20T10:11:15.158Z,21.60
2019-06-20T10:12:15.142Z,23.70
2019-06-20T10:13:15.146Z,21.00
2019-06-20T10:14:15.114Z,21.10
2019-06-20T10:15:15.102Z,25.60
2019-06-20T10:16:15.103Z,20.70
2019-06-20T10:17:15.091Z,22.20
2019-06-20T10:18:15.090Z,22.60
2019-06-20T10:19:15.062Z,21.20
2019-06-20T10:20:15.052Z,23.10
2019-06-20T10:21:15.050Z,25.80
2019-06-20T10:22:15.028Z,24.50
2019-06-20T10:23:15.040Z,22.60
2019-06-20T10:24:15.012Z,25.20
2019-06-20T10:25:14.998Z,23.70
2019-06-20T10:26:14.989Z,23.20
2019-06-20T10:27:14.977Z,21.10
2019-06-20T10:28:14.987Z,23.40
2019-06-20T10:30:23.891Z,20.70
2019-06-20T10:31:23.872Z,20.30
2019-06-20T10:32:23.871Z,21.80
2019-06-20T10:33:23.870Z,19.00
2019-06-20T10:34:23.861Z,16.70
2019-06-20T10:35:23.837Z,13.20
2019-06-20T10:36:23.819Z,9.20
2019-06-20T10:37:23.820Z,10.70
2019-06-20T10:38:23.798Z,9.10
2019-06-20T10:39:23.781Z,9.50
2019-06-20T10:40:23.789Z,6.70
2019-06-20T10:41:23.766Z,5.80
2019-06-20T10:42:23.786Z,5.40
2019-06-20T10:43:23.750Z,4.70
2019-06-20T10:44:23.727Z,4.50
2019-06-20T10:45:23.717Z,2.60
2019-06-20T10:46:23.706Z,2.90
2019-06-20T10:47:32.458Z,3.20
2019-06-20T10:48:24.715Z,2.50
2019-06-20T10:49:23.686Z,3.60
2019-06-20T10:50:23.688Z,3.10
2019-06-20T10:51:23.664Z,5.10
2019-06-20T10:52:23.674Z,3.50
2019-06-20T10:53:23.644Z,2.60
2019-06-20T10:54:23.624Z,2.50
2019-06-20T10:55:23.614Z,2.30
2019-06-20T10:56:23.623Z,3.20
2019-06-20T10:57:23.632Z,2.70
2019-06-20T10:58:23.603Z,1.80
2019-06-20T10:59:23.581Z,3.90
2019-06-20T11:00:30.829Z,4.60
2019-06-20T11:01:24.566Z,2.30
2019-06-20T11:02:23.573Z,3.20
2019-06-20T11:03:23.570Z,3.60
2019-06-20T11:04:23.532Z,2.20
2019-06-20T11:05:24.120Z,3.40
2019-06-20T11:06:23.542Z,3.90
2019-06-20T11:07:23.500Z,4.50
2019-06-20T11:08:23.480Z,4.00
2019-06-20T11:09:23.490Z,4.00
2019-06-20T11:10:23.459Z,4.60
2019-06-20T11:11:23.468Z,4.30
2019-06-20T11:12:23.455Z,5.70
2019-06-20T11:13:23.432Z,5.10
2019-06-20T11:14:23.420Z,4.90
2019-06-20T11:15:23.407Z,5.00
2019-06-20T11:16:23.399Z,4.50
2019-06-20T11:17:23.393Z,6.10
2019-06-20T11:18:23.388Z,4.60
2019-06-20T11:19:23.382Z,4.60
2019-06-20T11:20:23.368Z,4.10
2019-06-20T11:21:23.443Z,4.80
2019-06-20T11:22:23.341Z,6.10
2019-06-20T11:23:23.358Z,6.10
2019-06-20T11:24:23.316Z,4.40
2019-06-20T11:25:24.064Z,5.80
2019-06-20T11:26:23.313Z,4.10
2019-06-20T11:27:23.277Z,4.70
2019-06-20T11:28:23.786Z,5.40
2019-06-20T11:29:23.254Z,7.20
2019-06-20T11:30:23.244Z,6.70
2019-06-20T11:31:23.234Z,4.90
2019-06-20T11:32:23.225Z,4.70
2019-06-20T11:33:23.225Z,4.80
2019-06-20T11:34:23.306Z,5.00
2019-06-20T11:35:23.197Z,4.50
2019-06-20T11:36:23.185Z,6.30
2019-06-20T11:37:23.174Z,3.90
2019-06-20T11:38:23.173Z,4.60
2019-06-20T11:39:23.144Z,4.60
2019-06-20T11:40:23.141Z,3.30
2019-06-20T11:41:23.132Z,4.40
2019-06-20T11:42:23.111Z,5.80
2019-06-20T11:43:23.120Z,3.30
2019-06-20T11:44:23.098Z,5.70
2019-06-20T11:45:23.711Z,5.70
2019-06-20T11:46:23.080Z,5.50
2019-06-20T11:47:23.081Z,4.00
2019-06-20T11:48:24.189Z,5.00
2019-06-20T11:49:23.039Z,4.60
2019-06-20T11:50:23.039Z,3.50
2019-06-20T11:51:23.429Z,3.60
2019-06-20T11:52:23.032Z,4.00
2019-06-20T11:53:23.007Z,3.80
2019-06-20T11:54:22.987Z,4.40
2019-06-20T11:55:22.987Z,3.60
2019-06-20T11:56:22.969Z,3.30
2019-06-20T11:57:22.968Z,5.00
2019-06-20T11:58:23.616Z,4.90
2019-06-20T11:59:22.936Z,2.80
2019-06-20T12:00:22.926Z,4.90
2019-06-20T12:01:32.599Z,3.50
2019-06-20T12:02:23.911Z,3.10
2019-06-20T12:03:22.905Z,2.70
2019-06-20T12:04:22.916Z,3.20
2019-06-20T12:05:22.875Z,2.60
2019-06-20T12:06:22.864Z,2.60
2019-06-20T12:07:22.854Z,2.80
2019-06-20T12:08:24.185Z,2.30
2019-06-20T12:09:22.844Z,2.50
2019-06-20T12:10:22.823Z,2.60
2019-06-20T12:11:22.813Z,2.00
2019-06-20T12:12:22.807Z,3.10
2019-06-20T12:13:22.782Z,1.70
2019-06-20T12:14:22.840Z,3.00
2019-06-20T12:15:22.769Z,4.20
2019-06-20T12:16:22.750Z,2.10
2019-06-20T12:17:22.742Z,2.60
2019-06-20T12:18:22.736Z,1.50
2019-06-20T12:19:22.732Z,1.60
2019-06-20T12:20:22.721Z,2.80
2019-06-20T12:21:24.248Z,1.80
2019-06-20T12:22:22.690Z,2.40
2019-06-20T12:23:22.689Z,1.40
2019-06-20T12:24:22.673Z,1.40
2019-06-20T12:25:22.659Z,1.80
2019-06-20T12:26:22.651Z,1.50
2019-06-20T12:27:22.638Z,1.90
2019-06-20T12:28:22.639Z,1.50
2019-06-20T12:29:22.630Z,1.60
2019-06-20T12:30:22.611Z,2.60
2019-06-20T12:31:22.598Z,1.40
2019-06-20T12:32:22.606Z,1.40
2019-06-20T12:33:22.567Z,1.80
2019-06-20T12:34:22.626Z,1.90
2019-06-20T12:35:22.556Z,1.90
2019-06-20T12:36:22.563Z,4.50
2019-06-20T12:37:22.527Z,1.50
2019-06-20T12:38:22.585Z,1.20
2019-06-20T12:39:22.520Z,1.50
2019-06-20T12:40:22.505Z,2.90
2019-06-20T12:41:22.484Z,1.70
2019-06-20T12:42:22.501Z,2.40
2019-06-20T12:43:22.483Z,1.70
2019-06-20T12:44:22.464Z,1.40
2019-06-20T12:45:22.454Z,1.70
2019-06-20T12:46:22.432Z,1.80
2019-06-20T12:47:22.460Z,2.10
2019-06-20T12:48:22.412Z,1.40
2019-06-20T12:49:24.018Z,5.80
2019-06-20T12:50:22.403Z,2.50
2019-06-20T12:51:22.379Z,2.40
2019-06-20T12:52:22.371Z,1.60
2019-06-20T12:53:22.361Z,3.60
2019-06-20T12:54:22.351Z,1.50
2019-06-20T12:55:22.340Z,1.60
2019-06-20T12:56:22.520Z,1.60
2019-06-20T12:57:22.325Z,2.10
2019-06-20T12:58:22.309Z,1.80
2019-06-20T12:59:23.227Z,1.60